Time;durP1;ratioP1;P1;durP2;ratioP2;P2;SDS_P1;SDS_P2;PMS_P1;PMS_P2;Temp;Humidity;BMP_temperature;BMP_pressure;BME280_temperature;BME280_humidity;BME280_pressure;Samples;Min_cycle;Max_cycle;Signal;HPM_P1;HPM_P2
2022/12/06 00:00:25;;;;;;;;;;;3.80;96.10;;;;;;5067019;28;19927;-71
2022/12/06 00:02:51;;;;;;;;;;;3.80;96.10;;;;;;5069278;28;19999;-71
2022/12/06 00:05:16;;;;;;;;;;;3.80;96.10;;;;;;5069598;28;19917;-71
2022/12/06 00:07:42;;;;;;;;;;;3.80;96.10;;;;;;5067536;28;19913;-71
2022/12/06 00:10:07;;;;;;;;;;;3.80;96.10;;;;;;5048741;28;19999;-71
2022/12/06 00:12:33;;;;;;;;;;;3.70;96.10;;;;;;5048661;28;20059;-71
2022/12/06 00:14:58;;;;;;;;;;;3.80;96.10;;;;;;5048922;28;19999;-71
2022/12/06 00:17:24;;;;;;;;;;;3.80;96.10;;;;;;5048867;28;20010;-71
2022/12/06 00:19:49;;;;;;;;;;;3.80;96.10;;;;;;5048641;28;20011;-71
2022/12/06 00:22:15;;;;;;;;;;;3.80;96.10;;;;;;5081530;28;19916;-71
2022/12/06 00:24:40;;;;;;;;;;;3.80;96.10;;;;;;5088880;28;19912;-71
2022/12/06 00:27:06;;;;;;;;;;;3.70;96.10;;;;;;5077141;28;19912;-71
2022/12/06 00:29:31;;;;;;;;;;;3.70;96.10;;;;;;5067489;28;20364;-71
2022/12/06 00:31:57;;;;;;;;;;;3.80;96.10;;;;;;5062343;28;19913;-71
2022/12/06 00:34:22;;;;;;;;;;;3.80;96.10;;;;;;5047214;28;19913;-71
2022/12/06 00:36:48;;;;;;;;;;;3.80;96.10;;;;;;5066500;28;19912;-71
2022/12/06 00:39:14;;;;;;;;;;;3.80;96.10;;;;;;5070702;28;19936;-72
2022/12/06 00:41:40;;;;;;;;;;;3.80;96.10;;;;;;5067901;28;20353;-71
2022/12/06 00:44:06;;;;;;;;;;;3.80;96.10;;;;;;5068362;28;19908;-71
2022/12/06 00:46:32;;;;;;;;;;;3.70;96.10;;;;;;5068133;28;19912;-71
2022/12/06 00:48:58;;;;;;;;;;;3.80;96.10;;;;;;5064482;28;19913;-71
2022/12/06 00:51:25;;;;;;;;;;;3.80;96.10;;;;;;5067755;28;20649;-72
2022/12/06 00:53:51;;;;;;;;;;;3.80;96.10;;;;;;5068690;28;20486;-71
2022/12/06 00:56:17;;;;;;;;;;;3.80;96.10;;;;;;5066593;28;19986;-71
2022/12/06 00:58:43;;;;;;;;;;;3.80;96.10;;;;;;5067787;28;19921;-71
2022/12/06 01:01:09;;;;;;;;;;;3.80;96.10;;;;;;5067585;28;20038;-71
2022/12/06 01:03:35;;;;;;;;;;;3.80;96.10;;;;;;5048753;28;19920;-71
2022/12/06 01:06:03;;;;;;;;;;;3.80;96.10;;;;;;5047975;28;19909;-71
2022/12/06 01:08:28;;;;;;;;;;;3.80;96.10;;;;;;5046542;28;19999;-71
2022/12/06 01:10:54;;;;;;;;;;;3.80;96.20;;;;;;5055961;28;20382;-71
2022/12/06 01:13:19;;;;;;;;;;;3.80;96.10;;;;;;5067360;28;19924;-71
2022/12/06 01:15:45;;;;;;;;;;;3.80;96.20;;;;;;5067570;28;19908;-71
2022/12/06 01:18:10;;;;;;;;;;;3.80;96.20;;;;;;5066125;28;19919;-71
2022/12/06 01:20:36;;;;;;;;;;;3.80;96.20;;;;;;5067218;28;19908;-73
2022/12/06 01:23:01;;;;;;;;;;;3.80;96.20;;;;;;5067410;28;19909;-71
2022/12/06 01:25:27;;;;;;;;;;;3.80;96.20;;;;;;5066114;28;19920;-71
2022/12/06 01:27:52;;;;;;;;;;;3.80;96.10;;;;;;5065889;28;19924;-71
2022/12/06 01:30:18;;;;;;;;;;;3.80;96.10;;;;;;5075062;28;19923;-71
2022/12/06 01:32:43;;;;;;;;;;;3.80;96.20;;;;;;5074153;28;20351;-71
2022/12/06 01:35:09;;;;;;;;;;;3.80;96.20;;;;;;5067325;28;20367;-71
2022/12/06 01:37:34;;;;;;;;;;;3.80;96.10;;;;;;5067689;28;19912;-71
2022/12/06 01:40:00;;;;;;;;;;;3.80;96.10;;;;;;5067031;28;19924;-71
2022/12/06 01:42:25;;;;;;;;;;;3.80;96.20;;;;;;5067393;28;19916;-71
2022/12/06 01:44:52;;;;;;;;;;;3.80;96.20;;;;;;5067048;28;20587;-72
2022/12/06 01:47:34;;;;;;;;;;;3.80;96.20;;;;;;5066432;28;20388;-71
2022/12/06 01:50:00;;;;;;;;;;;3.80;96.20;;;;;;5066972;28;20308;-71
2022/12/06 01:52:28;;;;;;;;;;;3.80;96.20;;;;;;5066879;28;19912;-71
2022/12/06 01:54:54;;;;;;;;;;;3.80;96.20;;;;;;5067145;28;19978;-71
2022/12/06 01:57:19;;;;;;;;;;;3.80;96.20;;;;;;5066905;28;20307;-71
2022/12/06 01:59:45;;;;;;;;;;;3.80;96.20;;;;;;5059116;28;20666;-71
2022/12/06 02:02:11;;;;;;;;;;;3.80;96.20;;;;;;5070616;28;20552;-71
2022/12/06 02:04:36;;;;;;;;;;;3.80;96.20;;;;;;5066565;28;19916;-72
2022/12/06 02:07:01;;;;;;;;;;;3.80;96.20;;;;;;5065324;28;19919;-71
2022/12/06 02:09:28;;;;;;;;;;;3.80;96.20;;;;;;5050289;28;19963;-72
2022/12/06 02:11:53;;;;;;;;;;;3.80;96.20;;;;;;5046536;28;19925;-71
2022/12/06 02:14:22;;;;;;;;;;;3.80;96.20;;;;;;5046878;28;20262;-71
2022/12/06 02:17:06;;;;;;;;;;;3.80;96.20;;;;;;5059386;28;19920;-72
2022/12/06 02:19:37;;;;;;;;;;;3.80;96.20;;;;;;5086709;28;19916;-72
2022/12/06 02:22:29;;;;;;;;;;;3.80;96.20;;;;;;5086025;28;20307;-71
2022/12/06 02:24:57;;;;;;;;;;;3.80;96.20;;;;;;5077551;28;20462;-72
2022/12/06 02:27:34;;;;;;;;;;;3.80;96.20;;;;;;5073315;28;20322;-71
2022/12/06 02:30:07;;;;;;;;;;;3.80;96.20;;;;;;5066389;28;20033;-72
2022/12/06 02:32:32;;;;;;;;;;;3.80;96.20;;;;;;5054833;28;20007;-72
2022/12/06 02:35:08;;;;;;;;;;;3.80;96.20;;;;;;5065907;28;20003;-72
2022/12/06 02:37:50;;;;;;;;;;;3.80;96.20;;;;;;5065424;28;19916;-71
2022/12/06 02:40:19;;;;;;;;;;;3.80;96.20;;;;;;5066103;28;20502;-72
2022/12/06 02:42:44;;;;;;;;;;;3.80;96.20;;;;;;5066794;28;20040;-72
2022/12/06 02:45:13;;;;;;;;;;;3.80;96.20;;;;;;5066655;28;19991;-71
2022/12/06 02:47:39;;;;;;;;;;;3.80;96.20;;;;;;5061047;28;20634;-71
2022/12/06 02:50:07;;;;;;;;;;;3.80;96.20;;;;;;5069877;28;19916;-71
2022/12/06 02:52:35;;;;;;;;;;;3.80;96.20;;;;;;5066849;28;20005;-71
2022/12/06 02:55:01;;;;;;;;;;;3.80;96.20;;;;;;5065839;28;19913;-71
2022/12/06 02:57:33;;;;;;;;;;;3.80;96.20;;;;;;5066553;28;19967;-71
2022/12/06 02:59:59;;;;;;;;;;;3.80;96.20;;;;;;5065980;28;19927;-72
2022/12/06 03:02:24;;;;;;;;;;;3.80;96.20;;;;;;5063500;28;19917;-71
2022/12/06 03:04:50;;;;;;;;;;;3.80;96.20;;;;;;5066330;28;19913;-71
2022/12/06 03:07:18;;;;;;;;;;;3.90;96.20;;;;;;5066283;28;19908;-72
2022/12/06 03:09:43;;;;;;;;;;;3.80;96.20;;;;;;5047787;28;19940;-71
2022/12/06 03:12:14;;;;;;;;;;;3.80;96.20;;;;;;5045819;28;20354;-71
2022/12/06 03:14:54;;;;;;;;;;;3.90;96.20;;;;;;5045919;28;19913;-71
2022/12/06 03:17:34;;;;;;;;;;;3.80;96.20;;;;;;5071958;28;19919;-71
2022/12/06 03:20:09;;;;;;;;;;;3.80;96.20;;;;;;5087306;28;19916;-71
2022/12/06 03:22:35;;;;;;;;;;;3.80;96.20;;;;;;5090051;28;19919;-71
2022/12/06 03:25:01;;;;;;;;;;;3.80;96.20;;;;;;5089992;28;19908;-71
2022/12/06 03:27:29;;;;;;;;;;;3.90;96.20;;;;;;5070397;28;19920;-71
2022/12/06 03:29:56;;;;;;;;;;;3.80;96.20;;;;;;5068783;28;19919;-72
2022/12/06 03:32:24;;;;;;;;;;;3.90;96.20;;;;;;5063470;28;19916;-71
2022/12/06 03:34:51;;;;;;;;;;;3.80;96.20;;;;;;5067983;28;20425;-71
2022/12/06 03:37:19;;;;;;;;;;;3.80;96.20;;;;;;5066084;28;20280;-71
2022/12/06 03:40:00;;;;;;;;;;;3.90;96.30;;;;;;5068482;28;19916;-71
2022/12/06 03:42:26;;;;;;;;;;;3.80;96.20;;;;;;5067936;28;19916;-71
2022/12/06 03:44:51;;;;;;;;;;;3.80;96.20;;;;;;5069504;28;20579;-71
2022/12/06 03:47:20;;;;;;;;;;;3.80;96.20;;;;;;5068721;28;19912;-71
2022/12/06 03:49:57;;;;;;;;;;;3.80;96.30;;;;;;5070246;28;20011;-71
2022/12/06 03:52:23;;;;;;;;;;;3.80;96.20;;;;;;5069213;28;20023;-72
2022/12/06 03:54:48;;;;;;;;;;;3.80;96.30;;;;;;5069188;28;19912;-71
2022/12/06 03:57:14;;;;;;;;;;;3.80;96.30;;;;;;5069046;28;19973;-71
2022/12/06 03:59:39;;;;;;;;;;;3.80;96.30;;;;;;5068736;28;19917;-71
2022/12/06 04:02:05;;;;;;;;;;;3.80;96.30;;;;;;5062282;28;19916;-71
2022/12/06 04:04:31;;;;;;;;;;;3.80;96.30;;;;;;5053352;28;19924;-71
2022/12/06 04:06:57;;;;;;;;;;;3.80;96.30;;;;;;5069018;28;19928;-71
2022/12/06 04:12:59;;;;;;;;;;;3.80;96.30;;;;;;5068532;28;19927;-71
2022/12/06 04:14:52;;;;;;;;;;;3.90;96.30;;;;;;5068166;28;19916;-71
2022/12/06 04:20:02;;;;;;;;;;;3.90;96.30;;;;;;5068422;28;19966;-71
2022/12/06 04:25:11;;;;;;;;;;;3.90;96.30;;;;;;5068738;28;19915;-72
2022/12/06 04:38:43;;;;;;;;;;;3.90;96.30;;;;;;5068795;28;19931;-72
2022/12/06 04:43:40;;;;;;;;;;;3.90;96.30;;;;;;5058398;28;19942;-71
2022/12/06 04:43:58;;;;;;;;;;;3.90;96.30;;;;;;5068009;28;20003;-71
2022/12/06 04:46:23;;;;;;;;;;;3.90;96.30;;;;;;5076431;28;20014;-71
2022/12/06 04:48:49;;;;;;;;;;;3.90;96.40;;;;;;5066756;28;19912;-71
2022/12/06 04:51:15;;;;;;;;;;;3.90;96.40;;;;;;5067769;28;19912;-72
2022/12/06 04:53:41;;;;;;;;;;;3.90;96.40;;;;;;5068094;28;19920;-72
2022/12/06 04:56:06;;;;;;;;;;;3.90;96.40;;;;;;5077671;28;19920;-72
2022/12/06 04:58:32;;;;;;;;;;;3.90;96.40;;;;;;5067926;28;19951;-71
2022/12/06 05:00:57;;;;;;;;;;;3.90;96.40;;;;;;5067538;28;19951;-71
2022/12/06 05:03:23;;;;;;;;;;;3.90;96.40;;;;;;5050610;28;19913;-72
2022/12/06 05:05:49;;;;;;;;;;;3.90;96.30;;;;;;5047963;28;19995;-71
2022/12/06 05:08:14;;;;;;;;;;;3.90;96.40;;;;;;5047854;28;19913;-72
2022/12/06 05:10:40;;;;;;;;;;;3.90;96.30;;;;;;5047488;28;19913;-71
2022/12/06 05:13:05;;;;;;;;;;;3.90;96.40;;;;;;5086941;28;19985;-72
2022/12/06 05:15:32;;;;;;;;;;;3.90;96.40;;;;;;5087906;28;20291;-72
2022/12/06 05:17:57;;;;;;;;;;;3.90;96.40;;;;;;5087796;28;19943;-72
2022/12/06 05:20:23;;;;;;;;;;;3.90;96.40;;;;;;5087477;28;19960;-72
2022/12/06 05:22:48;;;;;;;;;;;3.90;96.40;;;;;;5087553;28;19973;-71
2022/12/06 05:25:15;;;;;;;;;;;3.90;96.40;;;;;;5087624;28;19912;-72
2022/12/06 05:27:41;;;;;;;;;;;3.90;96.40;;;;;;5064883;28;19999;-72
2022/12/06 05:30:07;;;;;;;;;;;3.90;96.40;;;;;;5065397;28;20011;-71
2022/12/06 05:32:32;;;;;;;;;;;3.90;96.40;;;;;;5056806;28;19913;-71
2022/12/06 05:34:57;;;;;;;;;;;3.90;96.40;;;;;;5047158;28;20255;-71
2022/12/06 05:37:23;;;;;;;;;;;3.90;96.40;;;;;;5046917;28;19988;-72
2022/12/06 05:39:48;;;;;;;;;;;3.90;96.40;;;;;;5046536;28;20354;-72
2022/12/06 05:42:14;;;;;;;;;;;3.90;96.40;;;;;;5046818;28;19920;-72
2022/12/06 05:44:40;;;;;;;;;;;3.90;96.40;;;;;;5059852;28;20415;-72
2022/12/06 05:47:05;;;;;;;;;;;3.90;96.40;;;;;;5066845;28;19916;-71
2022/12/06 05:49:31;;;;;;;;;;;3.90;96.40;;;;;;5066391;28;19915;-71
2022/12/06 05:51:56;;;;;;;;;;;3.90;96.40;;;;;;5066696;28;19923;-72
2022/12/06 05:54:22;;;;;;;;;;;3.90;96.40;;;;;;5067036;28;19917;-71
2022/12/06 05:56:48;;;;;;;;;;;3.90;96.40;;;;;;5066740;28;20579;-72
2022/12/06 05:59:13;;;;;;;;;;;3.90;96.40;;;;;;5066897;28;19917;-72
2022/12/06 06:01:39;;;;;;;;;;;3.90;96.40;;;;;;5073386;28;19913;-72
2022/12/06 06:04:04;;;;;;;;;;;3.90;96.40;;;;;;5055152;28;19916;-71
2022/12/06 06:06:30;;;;;;;;;;;3.90;96.40;;;;;;5067045;28;19919;-71
2022/12/06 06:08:55;;;;;;;;;;;3.90;96.40;;;;;;5055336;28;19913;-72
2022/12/06 06:11:21;;;;;;;;;;;4.00;96.40;;;;;;5046491;28;20011;-72
2022/12/06 06:13:46;;;;;;;;;;;3.90;96.40;;;;;;5078939;28;19917;-72
2022/12/06 06:16:12;;;;;;;;;;;3.90;96.40;;;;;;5054534;28;20021;-72
2022/12/06 06:18:37;;;;;;;;;;;4.00;96.50;;;;;;5067526;28;19993;-72
2022/12/06 06:21:03;;;;;;;;;;;3.90;96.50;;;;;;5066702;28;19993;-72
2022/12/06 06:23:28;;;;;;;;;;;3.90;96.40;;;;;;5066994;28;19912;-71
2022/12/06 06:25:54;;;;;;;;;;;3.90;96.40;;;;;;5066774;28;20007;-71
2022/12/06 06:28:19;;;;;;;;;;;4.00;96.50;;;;;;5066459;28;19917;-72
2022/12/06 06:30:45;;;;;;;;;;;4.00;96.50;;;;;;5065489;28;20001;-72
2022/12/06 06:33:10;;;;;;;;;;;3.90;96.40;;;;;;5050192;28;19913;-71
2022/12/06 06:35:37;;;;;;;;;;;4.00;96.50;;;;;;5062604;28;20136;-72
2022/12/06 06:38:02;;;;;;;;;;;4.00;96.40;;;;;;5061798;28;19917;-72
2022/12/06 06:40:28;;;;;;;;;;;4.00;96.50;;;;;;5045956;28;19916;-72
2022/12/06 06:42:54;;;;;;;;;;;4.00;96.50;;;;;;5054473;28;19912;-72
2022/12/06 06:45:19;;;;;;;;;;;4.00;96.40;;;;;;5066537;28;19940;-72
2022/12/06 06:47:45;;;;;;;;;;;4.00;96.50;;;;;;5061309;28;19913;-72
2022/12/06 06:50:11;;;;;;;;;;;4.00;96.50;;;;;;5066114;28;19912;-71
2022/12/06 06:52:36;;;;;;;;;;;4.00;96.40;;;;;;5067753;28;19924;-72
2022/12/06 06:55:02;;;;;;;;;;;4.00;96.50;;;;;;5067994;28;20395;-72
2022/12/06 06:57:27;;;;;;;;;;;4.00;96.50;;;;;;5070102;28;20385;-72
2022/12/06 06:59:55;;;;;;;;;;;4.00;96.40;;;;;;5069767;28;19916;-71
2022/12/06 07:02:20;;;;;;;;;;;4.00;96.50;;;;;;5061449;28;19913;-71
2022/12/06 07:04:46;;;;;;;;;;;4.00;96.40;;;;;;5050094;28;19920;-71
2022/12/06 07:07:11;;;;;;;;;;;4.00;96.40;;;;;;5053022;28;19919;-72
2022/12/06 07:09:37;;;;;;;;;;;4.00;96.40;;;;;;5052370;28;19916;-72
2022/12/06 07:12:03;;;;;;;;;;;4.00;96.50;;;;;;5049995;28;20003;-72
2022/12/06 07:14:28;;;;;;;;;;;4.00;96.40;;;;;;5049995;28;19937;-71
2022/12/06 07:16:54;;;;;;;;;;;4.00;96.40;;;;;;5050027;28;20047;-72
2022/12/06 07:19:20;;;;;;;;;;;4.00;96.50;;;;;;5049613;28;19997;-71
2022/12/06 07:21:45;;;;;;;;;;;4.00;96.40;;;;;;5050096;28;19913;-71
2022/12/06 07:24:11;;;;;;;;;;;4.00;96.40;;;;;;5057735;28;19978;-71
2022/12/06 07:26:36;;;;;;;;;;;4.00;96.40;;;;;;5069705;28;19916;-71
2022/12/06 07:29:02;;;;;;;;;;;4.00;96.40;;;;;;5069474;28;20034;-71
2022/12/06 07:31:28;;;;;;;;;;;4.00;96.50;;;;;;5068112;28;20532;-71
2022/12/06 07:33:55;;;;;;;;;;;4.00;96.40;;;;;;5049861;28;19913;-71
2022/12/06 07:36:22;;;;;;;;;;;4.00;96.40;;;;;;5050522;28;19924;-71
2022/12/06 07:38:48;;;;;;;;;;;4.00;96.40;;;;;;5069407;28;20380;-71
2022/12/06 07:46:44;;;;;;;;;;;4.00;96.40;;;;;;5089621;28;19927;-71
2022/12/06 07:49:10;;;;;;;;;;;4.00;96.40;;;;;;5089396;28;19912;-71
2022/12/06 07:51:36;;;;;;;;;;;4.00;96.40;;;;;;5089193;28;19916;-71
2022/12/06 07:54:01;;;;;;;;;;;4.00;96.40;;;;;;5089617;28;19908;-71
2022/12/06 07:56:27;;;;;;;;;;;4.10;96.50;;;;;;5083931;28;19920;-71
2022/12/06 07:58:52;;;;;;;;;;;4.00;96.50;;;;;;5069733;28;20339;-71
2022/12/06 08:01:18;;;;;;;;;;;4.10;96.50;;;;;;5069063;28;19948;-71
2022/12/06 08:03:44;;;;;;;;;;;4.10;96.50;;;;;;5049164;28;19913;-71
2022/12/06 08:06:09;;;;;;;;;;;4.10;96.50;;;;;;5063910;28;19912;-71
2022/12/06 08:08:35;;;;;;;;;;;4.10;96.40;;;;;;5058111;28;19913;-71
2022/12/06 08:11:01;;;;;;;;;;;4.10;96.40;;;;;;5068603;28;19920;-71
2022/12/06 08:13:27;;;;;;;;;;;4.10;96.50;;;;;;5081415;28;20311;-71
2022/12/06 08:15:52;;;;;;;;;;;4.10;96.40;;;;;;5074917;28;19913;-71
2022/12/06 08:18:18;;;;;;;;;;;4.10;96.40;;;;;;5068862;28;19923;-70
2022/12/06 08:20:43;;;;;;;;;;;4.10;96.40;;;;;;5068480;28;20006;-70
2022/12/06 08:23:09;;;;;;;;;;;4.10;96.40;;;;;;5067279;28;19920;-71
2022/12/06 08:25:34;;;;;;;;;;;4.10;96.40;;;;;;5068788;28;19917;-71
2022/12/06 08:28:00;;;;;;;;;;;4.10;96.40;;;;;;5068550;28;20483;-71
2022/12/06 08:30:25;;;;;;;;;;;4.10;96.40;;;;;;5074897;28;19925;-70
2022/12/06 08:32:51;;;;;;;;;;;4.10;96.40;;;;;;5068404;28;19908;-71
2022/12/06 08:35:16;;;;;;;;;;;4.10;96.40;;;;;;5068332;28;20571;-71
2022/12/06 08:37:41;;;;;;;;;;;4.10;96.40;;;;;;5066656;28;19920;-71
2022/12/06 08:40:07;;;;;;;;;;;4.10;96.40;;;;;;5080145;28;20460;-71
2022/12/06 08:42:33;;;;;;;;;;;4.20;96.40;;;;;;5051766;28;19978;-71
2022/12/06 08:44:58;;;;;;;;;;;4.20;96.40;;;;;;5068462;28;19989;-71
2022/12/06 08:47:24;;;;;;;;;;;4.20;96.40;;;;;;5067579;28;19965;-71
2022/12/06 08:49:49;;;;;;;;;;;4.20;96.40;;;;;;5068129;28;19973;-71
2022/12/06 08:52:15;;;;;;;;;;;4.20;96.40;;;;;;5067003;28;19919;-71
2022/12/06 08:54:41;;;;;;;;;;;4.20;96.40;;;;;;5068152;28;19909;-71
2022/12/06 08:57:06;;;;;;;;;;;4.20;96.40;;;;;;5067996;28;19916;-71
2022/12/06 08:59:32;;;;;;;;;;;4.20;96.40;;;;;;5066081;28;19920;-71
2022/12/06 09:01:58;;;;;;;;;;;4.20;96.30;;;;;;5068484;28;20373;-71
2022/12/06 09:04:23;;;;;;;;;;;4.20;96.30;;;;;;5065729;28;20591;-71
2022/12/06 09:06:49;;;;;;;;;;;4.20;96.30;;;;;;5067628;28;20506;-71
2022/12/06 09:09:15;;;;;;;;;;;4.20;96.30;;;;;;5067541;28;19908;-71
2022/12/06 09:11:41;;;;;;;;;;;4.20;96.30;;;;;;5067589;28;19920;-71
2022/12/06 09:14:08;;;;;;;;;;;4.30;96.30;;;;;;5067993;28;20460;-71
2022/12/06 09:16:33;;;;;;;;;;;4.30;96.30;;;;;;5067737;28;19913;-71
2022/12/06 09:18:59;;;;;;;;;;;4.20;96.30;;;;;;5074813;28;20527;-70
2022/12/06 09:21:27;;;;;;;;;;;4.30;96.40;;;;;;5086269;28;19954;-71
2022/12/06 09:23:54;;;;;;;;;;;4.20;96.30;;;;;;5087775;28;19912;-70
2022/12/06 09:26:19;;;;;;;;;;;4.30;96.30;;;;;;5082726;28;19920;-70
2022/12/06 09:28:48;;;;;;;;;;;4.30;96.40;;;;;;5066757;28;20022;-70
2022/12/06 09:31:14;;;;;;;;;;;4.30;96.40;;;;;;5066282;28;19912;-70
2022/12/06 09:33:39;;;;;;;;;;;4.30;96.30;;;;;;5046990;28;19913;-70
2022/12/06 09:36:06;;;;;;;;;;;4.30;96.30;;;;;;5064072;28;19912;-70
2022/12/06 09:38:33;;;;;;;;;;;4.30;96.30;;;;;;5066176;28;19912;-70
2022/12/06 09:41:17;;;;;;;;;;;4.30;96.30;;;;;;5066912;28;19908;-70
2022/12/06 09:44:01;;;;;;;;;;;4.40;96.40;;;;;;5067698;28;20549;-70
2022/12/06 09:46:50;;;;;;;;;;;4.40;96.40;;;;;;5067195;28;20339;-70
2022/12/06 09:49:25;;;;;;;;;;;4.40;96.40;;;;;;5046355;28;19991;-71
2022/12/06 09:52:06;;;;;;;;;;;4.40;96.40;;;;;;5067856;28;19916;-70
2022/12/06 09:54:32;;;;;;;;;;;4.30;96.30;;;;;;5067144;28;19916;-70
2022/12/06 09:57:15;;;;;;;;;;;4.40;96.40;;;;;;5066909;28;19919;-70
2022/12/06 09:59:59;;;;;;;;;;;4.40;96.40;;;;;;5066652;28;19919;-70
2022/12/06 10:02:25;;;;;;;;;;;4.40;96.30;;;;;;5057800;28;19912;-70
2022/12/06 10:05:02;;;;;;;;;;;4.40;96.40;;;;;;5047128;28;19920;-70
2022/12/06 10:07:34;;;;;;;;;;;4.40;96.40;;;;;;5046989;28;19919;-70
2022/12/06 10:10:10;;;;;;;;;;;4.40;96.40;;;;;;5078546;28;20528;-70
2022/12/06 10:12:35;;;;;;;;;;;4.40;96.40;;;;;;5087107;28;19920;-70
2022/12/06 10:15:24;;;;;;;;;;;4.40;96.40;;;;;;5082052;28;20619;-70
2022/12/06 10:17:49;;;;;;;;;;;4.40;96.50;;;;;;5062123;28;20284;-70
2022/12/06 10:20:18;;;;;;;;;;;4.40;96.80;;;;;;5076368;28;19920;-70
2022/12/06 10:22:56;;;;;;;;;;;4.40;96.50;;;;;;5086848;28;19916;-70
2022/12/06 10:25:24;;;;;;;;;;;4.40;96.50;;;;;;5087175;28;19946;-70
2022/12/06 10:27:52;;;;;;;;;;;4.40;96.50;;;;;;5069685;28;19944;-70
2022/12/06 10:30:18;;;;;;;;;;;4.40;96.50;;;;;;5068886;28;19912;-70
2022/12/06 10:32:54;;;;;;;;;;;4.40;96.50;;;;;;5058926;28;20373;-70
2022/12/06 10:35:28;;;;;;;;;;;4.40;96.50;;;;;;5072288;28;19955;-70
2022/12/06 10:38:20;;;;;;;;;;;4.50;96.50;;;;;;5070683;28;19912;-70
2022/12/06 10:40:51;;;;;;;;;;;4.40;96.50;;;;;;5070878;28;19962;-70
2022/12/06 10:43:23;;;;;;;;;;;4.40;96.50;;;;;;5070346;28;19939;-70
2022/12/06 10:48:48;;;;;;;;;;;4.40;96.50;;;;;;5070525;28;19919;-70
2022/12/06 10:51:18;;;;;;;;;;;4.40;96.50;;;;;;5082973;28;20674;-70
2022/12/06 10:53:47;;;;;;;;;;;4.40;96.40;;;;;;5090679;28;19912;-70
2022/12/06 10:56:18;;;;;;;;;;;4.50;96.50;;;;;;5086139;28;19912;-70
2022/12/06 10:58:58;;;;;;;;;;;4.50;96.50;;;;;;5069796;28;19975;-70
2022/12/06 11:01:27;;;;;;;;;;;4.50;96.50;;;;;;5068555;28;20642;-70
2022/12/06 11:03:52;;;;;;;;;;;4.50;96.50;;;;;;5049834;28;19963;-70
2022/12/06 11:06:20;;;;;;;;;;;4.50;96.50;;;;;;5067496;28;19920;-70
2022/12/06 11:08:51;;;;;;;;;;;4.50;96.50;;;;;;5059899;28;19909;-70
2022/12/06 11:11:29;;;;;;;;;;;4.50;96.40;;;;;;5082113;28;19920;-70
2022/12/06 11:13:58;;;;;;;;;;;4.50;96.40;;;;;;5050042;28;19940;-70
2022/12/06 11:16:26;;;;;;;;;;;4.50;96.50;;;;;;5049759;28;19913;-70
2022/12/06 11:18:54;;;;;;;;;;;4.50;96.50;;;;;;5049967;28;20012;-69
2022/12/06 11:21:28;;;;;;;;;;;4.50;96.40;;;;;;5049659;28;19934;-70
2022/12/06 11:23:59;;;;;;;;;;;4.60;96.40;;;;;;5083175;28;20641;-70
2022/12/06 11:26:32;;;;;;;;;;;4.60;96.40;;;;;;5055110;28;20619;-70
2022/12/06 11:29:05;;;;;;;;;;;4.50;96.40;;;;;;5069749;28;19940;-70
2022/12/06 11:31:30;;;;;;;;;;;4.60;96.40;;;;;;5066377;28;19919;-70
2022/12/06 11:33:57;;;;;;;;;;;4.60;96.40;;;;;;5049766;28;19940;-70
2022/12/06 11:36:24;;;;;;;;;;;4.60;96.30;;;;;;5050633;28;20011;-70
2022/12/06 11:38:50;;;;;;;;;;;4.60;96.30;;;;;;5069121;28;19924;-70
2022/12/06 11:41:19;;;;;;;;;;;4.70;96.20;;;;;;5077449;28;20437;-70
2022/12/06 11:43:45;;;;;;;;;;;4.70;96.20;;;;;;5071295;28;19913;-70
2022/12/06 11:46:12;;;;;;;;;;;4.70;96.30;;;;;;5068006;28;19916;-70
2022/12/06 11:48:38;;;;;;;;;;;4.70;96.30;;;;;;5069546;28;19920;-70
2022/12/06 11:51:06;;;;;;;;;;;4.70;96.30;;;;;;5069248;28;19912;-70
2022/12/06 11:53:36;;;;;;;;;;;4.80;96.30;;;;;;5069685;28;19909;-70
2022/12/06 11:56:05;;;;;;;;;;;4.80;96.30;;;;;;5069589;28;19909;-70
2022/12/06 11:58:38;;;;;;;;;;;4.80;96.20;;;;;;5083397;28;19916;-70
2022/12/06 12:01:13;;;;;;;;;;;4.80;96.30;;;;;;5074540;28;19919;-70
2022/12/06 12:03:40;;;;;;;;;;;4.80;96.30;;;;;;5068915;28;19912;-70
2022/12/06 12:06:15;;;;;;;;;;;4.80;96.30;;;;;;5069022;28;19913;-70
2022/12/06 12:08:49;;;;;;;;;;;4.80;96.30;;;;;;5059246;28;19912;-70
2022/12/06 12:11:18;;;;;;;;;;;4.80;96.30;;;;;;5048517;28;20605;-70
2022/12/06 12:13:49;;;;;;;;;;;4.80;96.30;;;;;;5054992;28;19923;-70
2022/12/06 12:16:21;;;;;;;;;;;4.80;96.30;;;;;;5071941;28;19935;-70
2022/12/06 12:19:06;;;;;;;;;;;4.80;96.30;;;;;;5068481;28;19918;-70
2022/12/06 12:21:39;;;;;;;;;;;4.90;96.40;;;;;;5068475;28;20652;-70
2022/12/06 12:24:25;;;;;;;;;;;4.80;96.30;;;;;;5068341;28;19982;-70
2022/12/06 12:26:50;;;;;;;;;;;4.80;96.30;;;;;;5066501;28;19912;-71
2022/12/06 12:29:18;;;;;;;;;;;4.90;96.40;;;;;;5067882;28;19966;-71
2022/12/06 12:31:46;;;;;;;;;;;4.90;96.40;;;;;;5076575;28;19967;-70
2022/12/06 12:34:13;;;;;;;;;;;4.90;96.40;;;;;;5048454;28;19919;-70
2022/12/06 12:36:45;;;;;;;;;;;4.90;96.40;;;;;;5048479;28;19931;-70
2022/12/06 12:39:20;;;;;;;;;;;4.90;96.40;;;;;;5049018;28;20023;-70
2022/12/06 12:41:46;;;;;;;;;;;4.90;96.40;;;;;;5066529;28;20046;-70
2022/12/06 12:44:19;;;;;;;;;;;4.90;96.40;;;;;;5068644;28;20003;-70
2022/12/06 12:46:47;;;;;;;;;;;4.90;96.40;;;;;;5070987;28;20459;-70
2022/12/06 12:49:19;;;;;;;;;;;4.90;96.40;;;;;;5088265;28;20288;-71
2022/12/06 12:51:44;;;;;;;;;;;5.00;96.40;;;;;;5087639;28;19919;-70
2022/12/06 12:54:22;;;;;;;;;;;5.00;96.50;;;;;;5087901;28;19912;-70
2022/12/06 12:56:48;;;;;;;;;;;5.00;96.20;;;;;;5079675;28;20015;-70
2022/12/06 12:59:15;;;;;;;;;;;5.00;96.20;;;;;;5067715;28;19970;-70
2022/12/06 13:01:50;;;;;;;;;;;5.00;96.20;;;;;;5064401;28;19963;-71
2022/12/06 13:04:30;;;;;;;;;;;5.00;96.30;;;;;;5057499;28;20370;-70
2022/12/06 13:07:01;;;;;;;;;;;5.00;96.40;;;;;;5066100;28;20262;-71
2022/12/06 13:09:45;;;;;;;;;;;5.10;96.40;;;;;;5067572;28;19955;-70
2022/12/06 13:12:18;;;;;;;;;;;5.20;96.20;;;;;;5066139;28;19920;-71
2022/12/06 13:14:57;;;;;;;;;;;5.20;96.00;;;;;;5084464;28;19922;-71
2022/12/06 13:17:25;;;;;;;;;;;5.30;95.90;;;;;;5084833;28;20018;-71
2022/12/06 13:19:51;;;;;;;;;;;5.30;95.80;;;;;;5084075;28;19927;-71
2022/12/06 13:22:37;;;;;;;;;;;5.40;95.90;;;;;;5103121;28;19912;-71
2022/12/06 13:25:05;;;;;;;;;;;5.30;95.80;;;;;;5104387;28;19921;-71
2022/12/06 13:27:36;;;;;;;;;;;5.30;95.90;;;;;;5089391;28;19923;-71
2022/12/06 13:30:01;;;;;;;;;;;5.30;95.90;;;;;;5083975;28;19908;-71
2022/12/06 13:32:38;;;;;;;;;;;5.30;95.90;;;;;;5080746;28;19916;-70
2022/12/06 13:35:19;;;;;;;;;;;5.30;96.00;;;;;;5081733;28;19995;-71
2022/12/06 13:38:05;;;;;;;;;;;5.30;96.00;;;;;;5082558;28;19916;-71
2022/12/06 13:40:36;;;;;;;;;;;5.30;96.00;;;;;;5091267;28;19958;-71
2022/12/06 13:43:03;;;;;;;;;;;5.30;96.20;;;;;;5083918;28;19953;-70
2022/12/06 13:45:45;;;;;;;;;;;5.30;96.20;;;;;;5083746;28;20457;-70
2022/12/06 13:48:22;;;;;;;;;;;5.30;96.20;;;;;;5083659;28;19912;-71
2022/12/06 13:50:58;;;;;;;;;;;5.20;96.30;;;;;;5083534;28;19919;-70
2022/12/06 13:53:25;;;;;;;;;;;5.20;96.30;;;;;;5083315;28;19934;-71
2022/12/06 13:55:57;;;;;;;;;;;5.20;96.30;;;;;;5084349;28;19919;-70
2022/12/06 13:58:26;;;;;;;;;;;5.10;96.30;;;;;;5083392;28;20028;-70
2022/12/06 14:00:52;;;;;;;;;;;5.10;96.30;;;;;;5083169;28;19919;-71
2022/12/06 14:03:18;;;;;;;;;;;5.20;96.30;;;;;;5082884;28;20462;-71
2022/12/06 14:06:02;;;;;;;;;;;5.10;96.40;;;;;;5083395;28;19947;-71
2022/12/06 14:08:45;;;;;;;;;;;5.10;96.30;;;;;;5081198;28;19954;-70
2022/12/06 14:11:24;;;;;;;;;;;5.10;96.30;;;;;;5081423;28;20514;-71
2022/12/06 14:13:49;;;;;;;;;;;5.10;96.40;;;;;;5095108;28;20372;-71
2022/12/06 14:16:24;;;;;;;;;;;5.10;96.40;;;;;;5099167;28;19961;-71
2022/12/06 14:18:50;;;;;;;;;;;5.10;96.40;;;;;;5103589;28;19912;-71
2022/12/06 14:21:19;;;;;;;;;;;5.10;96.40;;;;;;5102540;28;19981;-70
2022/12/06 14:23:45;;;;;;;;;;;5.10;96.30;;;;;;5102991;28;19918;-71
2022/12/06 14:26:11;;;;;;;;;;;5.10;96.30;;;;;;5100536;28;19951;-71
2022/12/06 14:28:36;;;;;;;;;;;5.10;96.40;;;;;;5089050;28;19947;-71
2022/12/06 14:31:06;;;;;;;;;;;5.10;96.40;;;;;;5088344;28;19967;-71
2022/12/06 14:33:31;;;;;;;;;;;5.10;96.30;;;;;;5088884;28;20438;-71
2022/12/06 14:35:57;;;;;;;;;;;5.10;96.30;;;;;;5088767;28;19912;-71
2022/12/06 14:38:27;;;;;;;;;;;5.10;96.30;;;;;;5080891;28;20045;-71
2022/12/06 14:43:36;;;;;;;;;;;5.10;96.30;;;;;;5109581;28;19919;-71
2022/12/06 14:46:04;;;;;;;;;;;5.10;96.30;;;;;;5108992;28;19916;-71
2022/12/06 14:50:22;;;;;;;;;;;5.10;96.30;;;;;;5109190;28;20646;-71
2022/12/06 14:51:20;;;;;;;;;;;5.10;96.30;;;;;;5108333;28;19911;-71
2022/12/06 14:53:45;;;;;;;;;;;5.10;96.30;;;;;;5087740;28;19920;-71
2022/12/06 14:56:17;;;;;;;;;;;5.10;96.30;;;;;;5088501;28;19923;-71
2022/12/06 14:58:42;;;;;;;;;;;5.10;96.30;;;;;;5088201;28;19923;-71
2022/12/06 15:01:15;;;;;;;;;;;5.10;96.30;;;;;;5088414;28;19916;-71
2022/12/06 15:03:41;;;;;;;;;;;5.10;96.30;;;;;;5086192;28;19918;-71
2022/12/06 15:06:20;;;;;;;;;;;5.10;96.40;;;;;;5088400;28;19909;-71
2022/12/06 15:08:46;;;;;;;;;;;5.10;96.40;;;;;;5068685;28;20533;-71